Time;durP1;ratioP1;P1;durP2;ratioP2;P2;SDS_P1;SDS_P2;PMS_P1;PMS_P2;Temp;Humidity;BMP_temperature;BMP_pressure;BME280_temperature;BME280_humidity;BME280_pressure;Samples;Min_cycle;Max_cycle;Signal;HPM_P1;HPM_P2
2023/02/12 00:00:07;;;;;;;;;;;19.00;30.00;;;;;;8365251;28;19956;-41
2023/02/12 00:04:07;;;;;;;;;;;19.00;30.10;;;;;;8365270;28;20617;-41
2023/02/12 00:08:10;;;;;;;;;;;19.00;30.10;;;;;;8365659;28;19968;-41
2023/02/12 00:12:11;;;;;;;;;;;18.90;30.10;;;;;;8347035;28;19913;-41
2023/02/12 00:16:13;;;;;;;;;;;18.90;30.10;;;;;;8365747;28;19912;-42
2023/02/12 00:20:13;;;;;;;;;;;18.90;30.10;;;;;;8364604;28;19917;-41
2023/02/12 00:24:13;;;;;;;;;;;18.90;30.10;;;;;;8364252;28;19970;-42
2023/02/12 00:28:14;;;;;;;;;;;18.90;30.10;;;;;;8364909;28;19920;-42
2023/02/12 00:32:18;;;;;;;;;;;18.80;30.10;;;;;;8364784;28;20374;-42
2023/02/12 00:36:19;;;;;;;;;;;18.80;30.60;;;;;;8364579;28;19921;-41
2023/02/12 00:40:20;;;;;;;;;;;18.80;30.20;;;;;;8364493;28;19917;-42
2023/02/12 00:44:20;;;;;;;;;;;18.80;30.20;;;;;;8364381;28;19924;-42
2023/02/12 00:48:21;;;;;;;;;;;18.70;30.10;;;;;;8363977;28;19959;-41
2023/02/12 00:52:21;;;;;;;;;;;18.70;30.20;;;;;;8364216;28;19913;-42
2023/02/12 00:56:22;;;;;;;;;;;18.70;30.20;;;;;;8364461;28;19912;-41
2023/02/12 01:00:22;;;;;;;;;;;18.70;30.20;;;;;;8363853;28;19927;-41
2023/02/12 01:04:22;;;;;;;;;;;18.60;30.20;;;;;;8364031;28;19936;-42
2023/02/12 01:08:23;;;;;;;;;;;18.60;30.20;;;;;;8363824;28;19927;-42
2023/02/12 01:12:24;;;;;;;;;;;18.60;30.20;;;;;;8362656;28;19925;-41
2023/02/12 01:16:24;;;;;;;;;;;18.60;30.20;;;;;;8363719;28;19917;-42
2023/02/12 01:20:25;;;;;;;;;;;18.50;30.20;;;;;;8363538;28;19971;-42
2023/02/12 01:24:25;;;;;;;;;;;18.50;30.20;;;;;;8362740;28;19925;-41
2023/02/12 01:28:25;;;;;;;;;;;18.50;30.20;;;;;;8363150;28;19960;-41
2023/02/12 01:32:26;;;;;;;;;;;18.50;30.20;;;;;;8362098;28;19983;-41
2023/02/12 01:36:27;;;;;;;;;;;18.50;30.20;;;;;;8362490;28;20436;-42
2023/02/12 01:40:28;;;;;;;;;;;18.50;30.30;;;;;;8363291;28;19917;-41
2023/02/12 01:44:29;;;;;;;;;;;18.40;30.30;;;;;;8362762;28;20438;-41
2023/02/12 01:48:31;;;;;;;;;;;18.40;30.30;;;;;;8362069;28;19917;-41
2023/02/12 01:52:33;;;;;;;;;;;18.40;30.20;;;;;;8363499;28;19920;-40
2023/02/12 01:56:33;;;;;;;;;;;18.40;30.30;;;;;;8362194;28;19928;-39
2023/02/12 02:00:34;;;;;;;;;;;18.40;30.30;;;;;;8361951;28;20293;-40
2023/02/12 02:04:37;;;;;;;;;;;18.40;30.30;;;;;;8362359;28;19932;-41
2023/02/12 02:08:39;;;;;;;;;;;18.30;30.30;;;;;;8337764;28;19913;-41
2023/02/12 02:17:05;;;;;;;;;;;18.30;30.30;;;;;;8368847;28;20332;-41
2023/02/12 02:21:28;;;;;;;;;;;18.30;30.60;;;;;;8362097;28;19917;-40
2023/02/12 02:25:29;;;;;;;;;;;18.30;31.60;;;;;;8324421;28;20393;-40
2023/02/12 02:29:55;;;;;;;;;;;18.20;30.40;;;;;;8362125;28;19920;-41
2023/02/12 02:34:01;;;;;;;;;;;18.10;30.40;;;;;;8361783;28;19923;-41
2023/02/12 02:38:11;;;;;;;;;;;18.10;30.30;;;;;;8361995;28;20362;-40
2023/02/12 02:42:23;;;;;;;;;;;18.10;31.40;;;;;;8361559;28;19960;-40
2023/02/12 02:46:24;;;;;;;;;;;18.20;31.90;;;;;;8366524;28;19948;-41
2023/02/12 02:50:26;;;;;;;;;;;18.20;31.40;;;;;;8368077;28;19999;-41
2023/02/12 02:54:31;;;;;;;;;;;18.20;31.60;;;;;;8367325;28;19952;-41
2023/02/12 02:58:34;;;;;;;;;;;18.30;31.50;;;;;;8367828;28;19960;-41
2023/02/12 03:02:36;;;;;;;;;;;18.30;31.50;;;;;;8367706;28;19933;-41
2023/02/12 03:06:49;;;;;;;;;;;18.40;31.60;;;;;;8366983;28;19939;-41
2023/02/12 03:10:58;;;;;;;;;;;18.40;31.50;;;;;;8367193;28;19923;-42
2023/02/12 03:15:02;;;;;;;;;;;18.40;31.40;;;;;;8367252;28;20003;-42
2023/02/12 03:19:29;;;;;;;;;;;18.50;31.60;;;;;;8367404;28;19916;-42
2023/02/12 03:23:55;;;;;;;;;;;18.50;32.00;;;;;;8362547;28;19928;-41
2023/02/12 03:28:00;;;;;;;;;;;18.50;31.90;;;;;;8362038;28;19956;-42
2023/02/12 03:32:19;;;;;;;;;;;18.50;31.70;;;;;;8366456;28;19955;-41
2023/02/12 03:36:22;;;;;;;;;;;18.60;31.80;;;;;;8366097;28;19924;-41
2023/02/12 03:40:42;;;;;;;;;;;18.60;31.60;;;;;;8366316;28;19916;-41
2023/02/12 03:44:48;;;;;;;;;;;18.20;29.10;;;;;;8365999;28;19978;-41
2023/02/12 03:48:57;;;;;;;;;;;18.10;30.30;;;;;;8365456;28;19917;-41
2023/02/12 03:52:57;;;;;;;;;;;18.20;30.40;;;;;;8366081;28;19913;-40
2023/02/12 03:57:04;;;;;;;;;;;18.20;30.30;;;;;;8364889;28;19994;-41
2023/02/12 04:01:04;;;;;;;;;;;18.30;30.10;;;;;;8365155;28;19920;-41
2023/02/12 04:05:06;;;;;;;;;;;18.40;30.20;;;;;;8365300;28;19921;-41
2023/02/12 04:09:08;;;;;;;;;;;18.40;30.20;;;;;;8364866;28;19970;-40
2023/02/12 04:13:16;;;;;;;;;;;18.40;30.30;;;;;;8365571;28;19913;-41
2023/02/12 04:17:37;;;;;;;;;;;18.40;30.50;;;;;;8365196;28;19916;-41
2023/02/12 04:22:09;;;;;;;;;;;18.50;30.50;;;;;;8364519;28;19917;-41
2023/02/12 04:26:17;;;;;;;;;;;18.60;30.60;;;;;;8347695;28;20416;-42
2023/02/12 04:30:24;;;;;;;;;;;18.70;30.50;;;;;;8366206;28;20273;-41
2023/02/12 04:34:39;;;;;;;;;;;18.70;30.60;;;;;;8365007;28;20537;-41
2023/02/12 04:38:42;;;;;;;;;;;18.80;30.50;;;;;;8364796;28;19916;-41
2023/02/12 04:42:44;;;;;;;;;;;18.90;30.50;;;;;;8363947;28;19932;-41
2023/02/12 04:46:44;;;;;;;;;;;18.90;30.50;;;;;;8364428;28;19924;-41
2023/02/12 04:50:45;;;;;;;;;;;18.90;30.50;;;;;;8364080;28;19917;-41
2023/02/12 04:54:45;;;;;;;;;;;19.00;30.50;;;;;;8362006;28;19924;-41
2023/02/12 04:58:46;;;;;;;;;;;19.00;31.00;;;;;;8364298;28;19999;-41
2023/02/12 05:02:46;;;;;;;;;;;19.10;30.50;;;;;;8361019;28;19925;-41
2023/02/12 05:06:47;;;;;;;;;;;19.10;30.60;;;;;;8359787;28;19917;-41
2023/02/12 05:10:47;;;;;;;;;;;19.10;30.50;;;;;;8363601;28;19917;-41
2023/02/12 05:14:48;;;;;;;;;;;19.10;30.70;;;;;;8362766;28;19924;-41
2023/02/12 05:18:48;;;;;;;;;;;19.10;30.60;;;;;;8362275;28;20516;-41
2023/02/12 05:22:52;;;;;;;;;;;19.10;30.60;;;;;;8361592;28;19935;-41
2023/02/12 05:26:52;;;;;;;;;;;19.20;30.70;;;;;;8362264;28;20344;-41
2023/02/12 05:30:53;;;;;;;;;;;19.20;30.80;;;;;;8361636;28;19920;-40
2023/02/12 05:34:53;;;;;;;;;;;19.20;30.70;;;;;;8363339;28;20020;-41
2023/02/12 05:38:56;;;;;;;;;;;19.20;30.80;;;;;;8361992;28;19917;-41
2023/02/12 05:42:56;;;;;;;;;;;19.20;30.70;;;;;;8360252;28;20309;-41
2023/02/12 05:46:57;;;;;;;;;;;19.20;30.80;;;;;;8361829;28;19917;-41
2023/02/12 05:51:01;;;;;;;;;;;19.20;30.80;;;;;;8361962;28;19920;-41
2023/02/12 05:55:01;;;;;;;;;;;19.20;30.80;;;;;;8361523;28;19917;-41
2023/02/12 05:59:02;;;;;;;;;;;19.30;30.80;;;;;;8361585;28;19921;-40
2023/02/12 06:03:02;;;;;;;;;;;19.30;30.90;;;;;;8360376;28;19972;-41
2023/02/12 06:07:03;;;;;;;;;;;19.10;30.40;;;;;;8360299;28;19921;-41
2023/02/12 06:11:04;;;;;;;;;;;19.00;30.40;;;;;;8362743;28;19944;-41
2023/02/12 06:15:05;;;;;;;;;;;19.00;30.30;;;;;;8361309;28;20296;-41
2023/02/12 06:19:06;;;;;;;;;;;19.10;30.30;;;;;;8363528;28;19920;-41
2023/02/12 06:23:06;;;;;;;;;;;19.00;31.00;;;;;;8368971;28;19929;-41
2023/02/12 06:27:07;;;;;;;;;;;19.00;30.40;;;;;;8368253;28;19924;-40
2023/02/12 06:31:16;;;;;;;;;;;19.10;30.40;;;;;;8368563;28;19923;-41
2023/02/12 06:35:17;;;;;;;;;;;19.10;30.50;;;;;;8368355;28;20332;-41
2023/02/12 06:39:17;;;;;;;;;;;19.10;30.60;;;;;;8368064;28;20333;-41
2023/02/12 06:43:18;;;;;;;;;;;19.10;30.60;;;;;;8368362;28;19929;-41
2023/02/12 06:47:18;;;;;;;;;;;19.20;30.60;;;;;;8368198;28;19920;-41
2023/02/12 06:51:22;;;;;;;;;;;19.20;30.60;;;;;;8367749;28;19951;-41
2023/02/12 06:55:22;;;;;;;;;;;19.20;30.70;;;;;;8367379;28;19917;-41
2023/02/12 06:59:23;;;;;;;;;;;19.20;30.70;;;;;;8367683;28;19929;-41
2023/02/12 07:03:23;;;;;;;;;;;19.20;30.60;;;;;;8367079;28;19933;-41
2023/02/12 07:07:24;;;;;;;;;;;19.20;30.70;;;;;;8367623;28;20361;-41
2023/02/12 07:11:25;;;;;;;;;;;19.20;30.80;;;;;;8367647;28;19916;-41
2023/02/12 07:15:25;;;;;;;;;;;19.20;30.70;;;;;;8366786;28;19935;-41
2023/02/12 07:19:26;;;;;;;;;;;19.20;30.90;;;;;;8367463;28;19913;-41
2023/02/12 07:23:26;;;;;;;;;;;19.30;31.10;;;;;;8366951;28;19924;-41
2023/02/12 07:27:27;;;;;;;;;;;19.30;31.00;;;;;;8366617;28;20278;-41
2023/02/12 07:31:28;;;;;;;;;;;19.30;31.00;;;;;;8366853;28;19921;-41
2023/02/12 07:35:28;;;;;;;;;;;19.30;30.80;;;;;;8366711;28;19924;-42
2023/02/12 07:39:28;;;;;;;;;;;19.30;31.60;;;;;;8366325;28;20409;-41
2023/02/12 07:43:29;;;;;;;;;;;19.40;31.30;;;;;;8366760;28;19925;-41
2023/02/12 07:47:29;;;;;;;;;;;19.40;31.10;;;;;;8366244;28;19923;-41
2023/02/12 07:51:31;;;;;;;;;;;19.40;31.10;;;;;;8365880;28;19916;-41
2023/02/12 07:55:32;;;;;;;;;;;19.40;31.90;;;;;;8362434;28;19949;-40
2023/02/12 07:59:32;;;;;;;;;;;19.50;31.50;;;;;;8333101;28;19928;-41
2023/02/12 08:03:32;;;;;;;;;;;19.40;31.00;;;;;;8336616;28;20306;-40
2023/02/12 08:07:33;;;;;;;;;;;19.40;30.80;;;;;;8352299;28;19921;-41
2023/02/12 08:11:34;;;;;;;;;;;19.00;28.10;;;;;;8365539;28;19928;-41
2023/02/12 08:15:34;;;;;;;;;;;18.50;28.50;;;;;;8364734;28;20000;-40
2023/02/12 08:19:35;;;;;;;;;;;18.40;29.90;;;;;;8365467;28;19958;-41
2023/02/12 08:23:35;;;;;;;;;;;18.30;29.60;;;;;;8364927;28;19970;-41
2023/02/12 08:27:36;;;;;;;;;;;18.40;29.90;;;;;;8364460;28;20330;-41
2023/02/12 08:31:38;;;;;;;;;;;18.50;29.90;;;;;;8365092;28;20259;-41
2023/02/12 08:35:38;;;;;;;;;;;18.60;29.80;;;;;;8364748;28;19912;-41
2023/02/12 08:39:39;;;;;;;;;;;18.70;29.70;;;;;;8364271;28;19944;-41
2023/02/12 08:43:40;;;;;;;;;;;18.50;29.80;;;;;;8361672;28;20301;-41
2023/02/12 08:47:40;;;;;;;;;;;18.40;30.20;;;;;;8364434;28;19963;-41
2023/02/12 08:51:42;;;;;;;;;;;18.40;30.40;;;;;;8363818;28;19924;-41
2023/02/12 08:55:49;;;;;;;;;;;18.50;30.40;;;;;;8364149;28;19912;-41
2023/02/12 08:59:49;;;;;;;;;;;18.50;30.30;;;;;;8365003;28;19921;-41
2023/02/12 09:03:50;;;;;;;;;;;18.60;30.30;;;;;;8363319;28;20140;-41
2023/02/12 09:07:52;;;;;;;;;;;18.60;30.30;;;;;;8364621;28;20286;-41
2023/02/12 09:11:53;;;;;;;;;;;18.60;30.50;;;;;;8365453;28;20298;-41
2023/02/12 09:15:53;;;;;;;;;;;18.60;30.40;;;;;;8364560;28;19923;-42
2023/02/12 09:19:53;;;;;;;;;;;18.60;30.40;;;;;;8364673;28;19917;-42
2023/02/12 09:23:54;;;;;;;;;;;18.50;30.50;;;;;;8364244;28;19931;-42
2023/02/12 09:27:55;;;;;;;;;;;18.60;30.70;;;;;;8364349;28;19917;-40
2023/02/12 09:31:56;;;;;;;;;;;18.60;30.70;;;;;;8363922;28;19978;-42
2023/02/12 09:36:00;;;;;;;;;;;18.60;30.70;;;;;;8363259;28;19922;-42
2023/02/12 09:40:00;;;;;;;;;;;18.60;30.80;;;;;;8362861;28;20302;-42
2023/02/12 09:44:05;;;;;;;;;;;18.50;30.80;;;;;;8363135;28;20015;-40
2023/02/12 09:48:23;;;;;;;;;;;18.50;30.90;;;;;;8362987;28;19948;-41
2023/02/12 09:52:25;;;;;;;;;;;18.50;31.00;;;;;;8362738;28;19921;-41
2023/02/12 09:56:26;;;;;;;;;;;18.50;31.00;;;;;;8368148;28;19964;-41
2023/02/12 10:00:29;;;;;;;;;;;18.40;31.00;;;;;;8370108;28;20384;-41
2023/02/12 10:04:30;;;;;;;;;;;18.50;31.10;;;;;;8369685;28;20298;-41
2023/02/12 10:08:36;;;;;;;;;;;18.50;32.00;;;;;;8368631;28;19920;-42
2023/02/12 10:12:49;;;;;;;;;;;18.40;31.40;;;;;;8368998;28;19917;-41
2023/02/12 10:16:52;;;;;;;;;;;18.40;31.30;;;;;;8367505;28;19913;-42
2023/02/12 10:21:16;;;;;;;;;;;18.40;31.40;;;;;;8364626;28;19917;-42
2023/02/12 10:25:27;;;;;;;;;;;18.20;31.50;;;;;;8319936;28;20002;-42
2023/02/12 10:29:30;;;;;;;;;;;18.10;31.40;;;;;;8368987;28;19917;-42
2023/02/12 10:33:36;;;;;;;;;;;18.00;31.20;;;;;;8368238;28;20385;-42
2023/02/12 10:37:54;;;;;;;;;;;18.00;31.40;;;;;;8368541;28;19959;-42
2023/02/12 10:41:58;;;;;;;;;;;18.10;31.30;;;;;;8368473;28;19999;-42
2023/02/12 10:45:58;;;;;;;;;;;18.10;31.10;;;;;;8368099;28;20305;-42
2023/02/12 10:50:00;;;;;;;;;;;18.20;31.10;;;;;;8368309;28;19923;-42
2023/02/12 10:54:20;;;;;;;;;;;18.20;31.20;;;;;;8367907;28;19913;-44
2023/02/12 10:58:21;;;;;;;;;;;18.20;31.20;;;;;;8367500;28;19921;-42
2023/02/12 11:02:25;;;;;;;;;;;18.20;31.00;;;;;;8367912;28;19963;-42
2023/02/12 11:06:27;;;;;;;;;;;18.30;31.00;;;;;;8366922;28;19913;-41
2023/02/12 11:10:30;;;;;;;;;;;18.20;31.00;;;;;;8348105;28;20378;-41
2023/02/12 11:14:31;;;;;;;;;;;18.30;31.00;;;;;;8360519;28;19996;-41
2023/02/12 11:18:32;;;;;;;;;;;18.20;31.00;;;;;;8367020;28;19917;-42
2023/02/12 11:22:32;;;;;;;;;;;18.20;31.10;;;;;;8367218;28;19952;-42
2023/02/12 11:26:33;;;;;;;;;;;18.20;31.00;;;;;;8367213;28;20286;-41
2023/02/12 11:30:33;;;;;;;;;;;18.30;31.00;;;;;;8366898;28;19913;-41
2023/02/12 11:34:34;;;;;;;;;;;18.30;31.00;;;;;;8366849;28;19974;-41
2023/02/12 11:38:36;;;;;;;;;;;18.30;31.10;;;;;;8366685;28;19956;-42
2023/02/12 11:42:37;;;;;;;;;;;18.20;31.30;;;;;;8366139;28;19925;-42
2023/02/12 11:46:39;;;;;;;;;;;18.20;31.30;;;;;;8366606;28;19913;-42
2023/02/12 11:50:45;;;;;;;;;;;18.20;31.10;;;;;;8366719;28;19913;-42
2023/02/12 11:54:46;;;;;;;;;;;18.30;31.10;;;;;;8365923;28;19921;-42
2023/02/12 11:58:47;;;;;;;;;;;18.30;31.10;;;;;;8366357;28;19928;-42
2023/02/12 12:02:56;;;;;;;;;;;18.30;31.10;;;;;;8366129;28;19925;-42
2023/02/12 12:07:10;;;;;;;;;;;18.30;31.10;;;;;;8365543;28;20014;-42
2023/02/12 12:11:13;;;;;;;;;;;18.30;31.10;;;;;;8366122;28;20317;-42
2023/02/12 12:20:00;;;;;;;;;;;18.30;31.20;;;;;;8366683;28;20285;-41
2023/02/12 12:24:13;;;;;;;;;;;18.20;31.20;;;;;;8365396;28;19931;-42
2023/02/12 12:28:27;;;;;;;;;;;18.30;31.20;;;;;;8365280;28;20447;-42
2023/02/12 12:32:29;;;;;;;;;;;18.20;31.30;;;;;;8365130;28;19923;-42
2023/02/12 12:36:37;;;;;;;;;;;18.20;31.40;;;;;;8364881;28;19952;-42
2023/02/12 12:40:43;;;;;;;;;;;18.20;31.50;;;;;;8364799;28;19923;-42
2023/02/12 12:45:08;;;;;;;;;;;18.20;31.30;;;;;;8364682;28;19924;-41
2023/02/12 12:49:11;;;;;;;;;;;18.20;31.20;;;;;;8364224;28;19924;-41
2023/02/12 12:53:32;;;;;;;;;;;18.30;31.30;;;;;;8364679;28;19944;-41
2023/02/12 12:57:43;;;;;;;;;;;18.30;31.30;;;;;;8362967;28;19923;-41
2023/02/12 13:02:02;;;;;;;;;;;18.20;31.30;;;;;;8364453;28;19988;-41
2023/02/12 13:06:29;;;;;;;;;;;18.30;31.30;;;;;;8364213;28;20040;-41
2023/02/12 13:10:38;;;;;;;;;;;18.20;31.30;;;;;;8363987;28;20423;-41
2023/02/12 13:15:01;;;;;;;;;;;18.30;31.30;;;;;;8363173;28;22276;-41
2023/02/12 13:19:20;;;;;;;;;;;18.20;31.50;;;;;;8322508;28;19939;-41
2023/02/12 13:23:20;;;;;;;;;;;18.20;31.50;;;;;;8363359;28;19932;-41
2023/02/12 13:27:30;;;;;;;;;;;18.20;31.40;;;;;;8362868;28;20286;-41
2023/02/12 13:31:34;;;;;;;;;;;18.20;31.40;;;;;;8363525;28;20289;-41
2023/02/12 13:35:36;;;;;;;;;;;18.20;31.50;;;;;;8363588;28;20394;-42
2023/02/12 13:39:39;;;;;;;;;;;18.30;31.50;;;;;;8362685;28;19924;-41
2023/02/12 13:43:51;;;;;;;;;;;18.20;31.50;;;;;;8363060;28;20378;-42
2023/02/12 13:47:55;;;;;;;;;;;18.30;31.50;;;;;;8363057;28;19917;-41
2023/02/12 13:52:02;;;;;;;;;;;18.20;31.50;;;;;;8362912;28;19912;-41
2023/02/12 13:56:02;;;;;;;;;;;18.30;31.50;;;;;;8363023;28;19917;-42
2023/02/12 14:00:07;;;;;;;;;;;18.20;31.40;;;;;;8363246;28;19920;-42
2023/02/12 14:04:13;;;;;;;;;;;18.30;31.50;;;;;;8362426;28;19925;-42
2023/02/12 14:08:34;;;;;;;;;;;18.30;31.50;;;;;;8362136;28;19926;-42
2023/02/12 14:12:37;;;;;;;;;;;18.20;31.60;;;;;;8362584;28;19917;-41
2023/02/12 14:16:39;;;;;;;;;;;18.20;31.50;;;;;;8362972;28;19917;-41
2023/02/12 14:20:39;;;;;;;;;;;18.20;31.30;;;;;;8362606;28;19994;-42
2023/02/12 14:24:46;;;;;;;;;;;18.30;31.40;;;;;;8362017;28;19925;-41
2023/02/12 14:28:54;;;;;;;;;;;18.30;31.40;;;;;;8362733;28;20012;-42
2023/02/12 14:32:56;;;;;;;;;;;18.30;31.30;;;;;;8362460;28;19921;-42
2023/02/12 14:37:10;;;;;;;;;;;18.30;31.30;;;;;;8362229;28;19917;-42
2023/02/12 14:41:41;;;;;;;;;;;18.20;31.30;;;;;;8365398;28;20426;-41
2023/02/12 14:45:42;;;;;;;;;;;18.30;31.30;;;;;;8367991;28;19924;-42
2023/02/12 14:49:46;;;;;;;;;;;18.30;31.50;;;;;;8368333;28;19916;-42
2023/02/12 14:53:47;;;;;;;;;;;18.20;31.50;;;;;;8368288;28;19929;-41
2023/02/12 14:57:47;;;;;;;;;;;18.30;31.50;;;;;;8367916;28;19924;-41
2023/02/12 15:01:48;;;;;;;;;;;18.20;31.50;;;;;;8368168;28;19956;-42
2023/02/12 15:06:01;;;;;;;;;;;18.20;31.50;;;;;;8367905;28;20389;-41
2023/02/12 15:10:13;;;;;;;;;;;18.20;31.50;;;;;;8367252;28;20001;-41
2023/02/12 15:14:29;;;;;;;;;;;18.20;31.50;;;;;;8372391;28;20267;-41
2023/02/12 15:18:41;;;;;;;;;;;18.20;32.00;;;;;;8367001;28;19923;-41
2023/02/12 15:22:42;;;;;;;;;;;18.20;31.40;;;;;;8367494;28;19921;-41
2023/02/12 15:26:50;;;;;;;;;;;18.20;31.50;;;;;;8367435;28;19916;-41
2023/02/12 15:30:52;;;;;;;;;;;18.20;31.50;;;;;;8366649;28;19971;-41
2023/02/12 15:34:53;;;;;;;;;;;18.20;31.50;;;;;;8366950;28;19917;-41
2023/02/12 15:38:55;;;;;;;;;;;18.20;31.50;;;;;;8366966;28;19924;-41
2023/02/12 15:43:03;;;;;;;;;;;18.20;31.50;;;;;;8366432;28;19928;-41
2023/02/12 15:47:06;;;;;;;;;;;18.20;31.60;;;;;;8366599;28;19923;-41
2023/02/12 15:51:26;;;;;;;;;;;18.20;31.60;;;;;;8365752;28;19917;-41
2023/02/12 15:55:28;;;;;;;;;;;18.20;31.50;;;;;;8366205;28;20004;-41
2023/02/12 15:59:28;;;;;;;;;;;18.20;31.50;;;;;;8366622;28;20016;-41
2023/02/12 16:03:30;;;;;;;;;;;18.20;31.50;;;;;;8365426;28;19921;-41
2023/02/12 16:07:33;;;;;;;;;;;18.10;31.40;;;;;;8366345;28;19940;-41
2023/02/12 16:11:34;;;;;;;;;;;18.20;31.50;;;;;;8365760;28;19923;-41
2023/02/12 16:15:38;;;;;;;;;;;18.20;31.60;;;;;;8365189;28;19917;-42
2023/02/12 16:19:38;;;;;;;;;;;18.10;31.70;;;;;;8365419;28;19917;-41
2023/02/12 16:23:41;;;;;;;;;;;18.10;31.50;;;;;;8365382;28;19921;-41
2023/02/12 16:27:51;;;;;;;;;;;18.10;31.50;;;;;;8364931;28;19917;-41
2023/02/12 16:31:56;;;;;;;;;;;18.10;31.60;;;;;;8365130;28;19917;-41
2023/02/12 16:36:03;;;;;;;;;;;18.10;31.80;;;;;;8365025;28;19916;-41
2023/02/12 16:40:14;;;;;;;;;;;18.10;31.70;;;;;;8364321;28;20397;-41
2023/02/12 16:44:14;;;;;;;;;;;18.10;31.60;;;;;;8364740;28;19951;-42
2023/02/12 16:48:22;;;;;;;;;;;18.10;31.60;;;;;;8364332;28;19917;-41
2023/02/12 16:52:32;;;;;;;;;;;18.10;31.60;;;;;;8364483;28;19917;-41
2023/02/12 16:56:37;;;;;;;;;;;18.10;31.70;;;;;;8364407;28;19917;-41
2023/02/12 17:00:38;;;;;;;;;;;18.10;31.70;;;;;;8363677;28;19960;-41
2023/02/12 17:04:39;;;;;;;;;;;18.10;31.70;;;;;;8363775;28;20393;-41
2023/02/12 17:08:39;;;;;;;;;;;18.10;31.70;;;;;;8363245;28;19924;-42
2023/02/12 17:12:47;;;;;;;;;;;18.10;31.60;;;;;;8363604;28;19923;-41
2023/02/12 17:16:48;;;;;;;;;;;18.10;31.60;;;;;;8363951;28;19917;-41
2023/02/12 17:21:15;;;;;;;;;;;18.10;31.60;;;;;;8363684;28;19912;-41
2023/02/12 17:25:15;;;;;;;;;;;18.00;31.70;;;;;;8324946;28;19928;-42
2023/02/12 17:29:16;;;;;;;;;;;18.00;31.70;;;;;;8363721;28;20310;-41
2023/02/12 17:33:17;;;;;;;;;;;18.10;31.70;;;;;;8363168;28;19940;-41
2023/02/12 17:37:18;;;;;;;;;;;18.00;31.70;;;;;;8363758;28;19949;-41
2023/02/12 17:41:18;;;;;;;;;;;18.00;31.70;;;;;;8363215;28;19921;-41
2023/02/12 17:45:19;;;;;;;;;;;18.00;31.70;;;;;;8362662;28;20027;-41
2023/02/12 17:49:19;;;;;;;;;;;18.00;31.60;;;;;;8363258;28;19912;-41
2023/02/12 17:53:20;;;;;;;;;;;18.00;31.60;;;;;;8363247;28;20419;-42
2023/02/12 17:57:20;;;;;;;;;;;18.00;31.60;;;;;;8362547;28;20268;-41
2023/02/12 18:01:21;;;;;;;;;;;18.00;31.60;;;;;;8363405;28;19991;-42
2023/02/12 18:05:22;;;;;;;;;;;18.00;31.60;;;;;;8362770;28;19921;-42
2023/02/12 18:09:22;;;;;;;;;;;18.00;31.70;;;;;;8362277;28;19963;-42
2023/02/12 18:13:23;;;;;;;;;;;18.00;31.80;;;;;;8363026;28;20394;-42
2023/02/12 18:17:23;;;;;;;;;;;18.00;31.80;;;;;;8367661;28;20309;-42
2023/02/12 18:21:24;;;;;;;;;;;17.90;31.70;;;;;;8368936;28;19999;-41
2023/02/12 18:25:24;;;;;;;;;;;17.90;31.70;;;;;;8368994;28;19924;-41
2023/02/12 18:29:25;;;;;;;;;;;17.90;31.70;;;;;;8369025;28;19973;-41
2023/02/12 18:33:25;;;;;;;;;;;17.90;31.70;;;;;;8368746;28;19917;-42
2023/02/12 18:37:26;;;;;;;;;;;17.90;31.70;;;;;;8368690;28;19999;-41
2023/02/12 18:41:28;;;;;;;;;;;17.90;31.70;;;;;;8368865;28;19913;-41
2023/02/12 18:45:28;;;;;;;;;;;17.90;31.70;;;;;;8367829;28;19971;-41
2023/02/12 18:49:29;;;;;;;;;;;17.90;31.70;;;;;;8368558;28;20290;-41
2023/02/12 18:53:29;;;;;;;;;;;17.90;31.70;;;;;;8368608;28;19995;-41
2023/02/12 18:57:30;;;;;;;;;;;17.90;31.70;;;;;;8367484;28;20313;-41
2023/02/12 19:01:31;;;;;;;;;;;17.90;31.80;;;;;;8367883;28;20000;-41
2023/02/12 19:05:31;;;;;;;;;;;17.90;31.80;;;;;;8367975;28;19921;-42
2023/02/12 19:09:32;;;;;;;;;;;17.80;31.70;;;;;;8367413;28;19923;-41
2023/02/12 19:13:32;;;;;;;;;;;17.90;31.70;;;;;;8367634;28;19983;-42
2023/02/12 19:17:33;;;;;;;;;;;17.80;31.60;;;;;;8367601;28;20282;-42
2023/02/12 19:21:34;;;;;;;;;;;17.90;31.70;;;;;;8367085;28;19924;-41
2023/02/12 19:25:40;;;;;;;;;;;17.90;31.70;;;;;;8367082;28;19928;-40
2023/02/12 19:29:40;;;;;;;;;;;17.80;31.70;;;;;;8367694;28;19924;-41
2023/02/12 19:33:41;;;;;;;;;;;17.80;31.70;;;;;;8366558;28;19916;-42
2023/02/12 19:37:42;;;;;;;;;;;17.80;31.70;;;;;;8367027;28;20297;-41
2023/02/12 19:41:43;;;;;;;;;;;17.80;31.70;;;;;;8366894;28;19913;-41
2023/02/12 19:45:43;;;;;;;;;;;17.80;31.70;;;;;;8366069;28;19925;-42
2023/02/12 19:49:44;;;;;;;;;;;17.80;31.80;;;;;;8366893;28;19974;-43
2023/02/12 19:53:44;;;;;;;;;;;17.80;31.70;;;;;;8366283;28;19921;-42
2023/02/12 19:57:46;;;;;;;;;;;17.80;31.80;;;;;;8365584;28;20437;-42
2023/02/12 20:01:47;;;;;;;;;;;17.70;31.70;;;;;;8366219;28;19957;-41
2023/02/12 20:05:51;;;;;;;;;;;17.70;31.70;;;;;;8366049;28;19949;-41
2023/02/12 20:09:52;;;;;;;;;;;17.80;31.70;;;;;;8334130;28;19921;-41
2023/02/12 20:13:52;;;;;;;;;;;17.80;31.70;;;;;;8364710;28;20000;-40
2023/02/12 20:17:53;;;;;;;;;;;17.80;31.70;;;;;;8366184;28;20300;-41
2023/02/12 20:21:54;;;;;;;;;;;17.70;31.70;;;;;;8365218;28;20000;-41
2023/02/12 20:25:55;;;;;;;;;;;17.80;31.70;;;;;;8365747;28;19943;-42
2023/02/12 20:29:55;;;;;;;;;;;17.80;31.70;;;;;;8365510;28;19919;-41
2023/02/12 20:34:00;;;;;;;;;;;17.80;31.70;;;;;;8364619;28;19921;-42
2023/02/12 20:38:00;;;;;;;;;;;17.80;31.60;;;;;;8364482;28;19962;-41
2023/02/12 20:42:01;;;;;;;;;;;17.80;31.70;;;;;;8364800;28;19920;-41
2023/02/12 20:46:09;;;;;;;;;;;17.80;31.70;;;;;;8364341;28;20345;-42
2023/02/12 20:50:09;;;;;;;;;;;17.70;31.70;;;;;;8364857;28;19913;-40
2023/02/12 20:54:10;;;;;;;;;;;17.70;31.70;;;;;;8364061;28;19924;-42
2023/02/12 20:58:11;;;;;;;;;;;17.80;31.70;;;;;;8364396;28;19920;-41
2023/02/12 21:02:11;;;;;;;;;;;17.70;31.60;;;;;;8364562;28;20003;-42
2023/02/12 21:06:12;;;;;;;;;;;17.70;31.70;;;;;;8363834;28;19929;-41
2023/02/12 21:10:12;;;;;;;;;;;17.70;31.60;;;;;;8364621;28;19929;-41
2023/02/12 21:14:13;;;;;;;;;;;17.70;31.70;;;;;;8346177;28;19999;-41
2023/02/12 21:18:14;;;;;;;;;;;17.70;31.60;;;;;;8363355;28;20436;-41
2023/02/12 21:22:14;;;;;;;;;;;17.70;31.70;;;;;;8364039;28;19998;-42
2023/02/12 21:26:16;;;;;;;;;;;17.70;31.70;;;;;;8363487;28;19928;-41
2023/02/12 21:30:16;;;;;;;;;;;17.70;31.70;;;;;;8363583;28;19992;-41
2023/02/12 21:34:19;;;;;;;;;;;17.70;31.70;;;;;;8363240;28;19917;-41
2023/02/12 21:38:20;;;;;;;;;;;17.70;31.70;;;;;;8363336;28;19923;-42
2023/02/12 21:42:20;;;;;;;;;;;17.70;31.60;;;;;;8362565;28;19917;-41
2023/02/12 21:46:24;;;;;;;;;;;17.70;31.60;;;;;;8362975;28;20409;-41
2023/02/12 21:50:24;;;;;;;;;;;17.60;31.60;;;;;;8363108;28;19935;-42
2023/02/12 21:54:25;;;;;;;;;;;17.60;31.60;;;;;;8362453;28;19921;-41
2023/02/12 21:58:26;;;;;;;;;;;17.60;31.70;;;;;;8362778;28;19925;-41
2023/02/12 22:02:26;;;;;;;;;;;17.60;31.70;;;;;;8362956;28;19939;-41
2023/02/12 22:06:27;;;;;;;;;;;17.60;31.70;;;;;;8362257;28;19932;-41
2023/02/12 22:10:27;;;;;;;;;;;17.60;31.70;;;;;;8363117;28;19935;-41
2023/02/12 22:14:28;;;;;;;;;;;17.50;31.70;;;;;;8362776;28;20378;-41
2023/02/12 22:18:28;;;;;;;;;;;17.50;31.70;;;;;;8362201;28;19916;-41
2023/02/12 22:22:29;;;;;;;;;;;17.60;31.70;;;;;;8362751;28;19917;-41
2023/02/12 22:26:29;;;;;;;;;;;17.60;31.70;;;;;;8362503;28;19921;-41
2023/02/12 22:30:30;;;;;;;;;;;17.50;32.20;;;;;;8362127;28;19920;-41
2023/02/12 22:34:30;;;;;;;;;;;17.50;31.60;;;;;;8362335;28;19923;-41
2023/02/12 22:38:34;;;;;;;;;;;17.50;31.60;;;;;;8362170;28;19917;-42
2023/02/12 22:42:35;;;;;;;;;;;17.50;31.60;;;;;;8361687;28;19917;-41
2023/02/12 22:46:35;;;;;;;;;;;17.50;31.60;;;;;;8362500;28;20404;-41
2023/02/12 22:50:38;;;;;;;;;;;17.50;31.60;;;;;;8362405;28;19913;-41
2023/02/12 22:54:38;;;;;;;;;;;17.50;31.60;;;;;;8361492;28;19917;-41
2023/02/12 22:58:39;;;;;;;;;;;17.50;31.60;;;;;;8362131;28;20285;-41
2023/02/12 23:02:39;;;;;;;;;;;17.50;31.60;;;;;;8364348;28;19943;-41
2023/02/12 23:06:39;;;;;;;;;;;17.40;31.60;;;;;;8367386;28;19924;-41
2023/02/12 23:10:40;;;;;;;;;;;17.50;31.60;;;;;;8338205;28;20315;-41
2023/02/12 23:14:40;;;;;;;;;;;17.50;31.60;;;;;;8363308;28;19917;-41
2023/02/12 23:18:41;;;;;;;;;;;17.40;31.60;;;;;;8367089;28;20007;-41
2023/02/12 23:22:41;;;;;;;;;;;17.50;31.60;;;;;;8367233;28;19917;-41
2023/02/12 23:26:42;;;;;;;;;;;17.50;31.60;;;;;;8367467;28;19924;-41
2023/02/12 23:30:42;;;;;;;;;;;17.40;31.60;;;;;;8366906;28;19920;-41
2023/02/12 23:34:43;;;;;;;;;;;17.50;31.60;;;;;;8366877;28;20263;-41
2023/02/12 23:38:43;;;;;;;;;;;17.50;31.60;;;;;;8366897;28;20393;-41
2023/02/12 23:42:45;;;;;;;;;;;17.40;31.60;;;;;;8366253;28;20267;-41